Flight Track Log - Related Links

Times and Time Zones

All times are in EDT time to prevent confusion due to time zone crossing. See the SWA419 flight status page for this flight to view local times or setup timezone preferences in your user account.

Time Position Orientation Groundspeed Altitude Reporting Facility
EDT Latitude Longitude Course Direction KTS MPH feet Rate Location/Type
Fri 06:55:57 PM 29.5953 -98.4072 35° Northeast 215 247 3,700  Level Houston Center
Fri 06:56:52 PM 29.6572 -98.4189 351° North 258 297 5,800 2,500 Climbing Houston Center
Fri 06:57:09 PM 29.6783 -98.4211 355° North 249 287 6,700 3,148 Climbing Houston Center
Fri 06:57:53 PM 29.7294 -98.4294 352° North 276 318 9,000 2,806 Climbing Houston Center
Fri 06:58:11 PM 29.7544 -98.4278 North 277 319 9,600 1,725 Climbing Houston Center
Fri 06:59:13 PM 29.8539 -98.4183 North 352 405 11,300 1,984 Climbing Houston Center
Fri 07:00:15 PM 29.9650 -98.4075 North 391 450 13,700 2,565 Climbing Houston Center
Fri 07:01:17 PM 30.0897 -98.3958 North 415 478 16,600 2,323 Climbing Houston Center
Fri 07:02:19 PM 30.1953 -98.4475 337° Northwest 433 498 18,500 1,258 Climbing Houston Center
Fri 07:03:21 PM 30.3058 -98.5128 333° Northwest 406 467 19,200 1,597 Climbing Houston Center
Fri 07:04:23 PM 30.3981 -98.5681 333° Northwest 414 476 21,800 2,323 Climbing Houston Center
Fri 07:05:25 PM 30.5025 -98.6331 332° Northwest 421 484 24,000 1,839 Climbing Houston Center
Fri 07:06:27 PM 30.6142 -98.7003 333° Northwest 442 509 25,600 1,790 Climbing Houston Center
Fri 07:07:29 PM 30.7467 -98.7811 332° Northwest 453 521 27,700 2,081 Climbing Houston Center
Fri 07:08:31 PM 30.8606 -98.8503 332° Northwest 455 524 29,900 2,016 Climbing Houston Center
Fri 07:09:34 PM 30.9731 -98.9206 332° Northwest 453 521 31,900 1,824 Climbing Houston Center
Fri 07:10:36 PM 31.0842 -98.9886 332° Northwest 447 514 33,700 1,694 Climbing Houston Center
Fri 07:11:38 PM 31.1931 -99.0564 332° Northwest 440 506 35,400 1,548 Climbing Houston Center
Fri 07:12:40 PM 31.3022 -99.1228 333° Northwest 436 502 36,900 1,258 Climbing Houston Center
Fri 07:13:42 PM 31.4069 -99.1894 331° Northwest 424 488 38,000 537 Climbing Houston Center
Fri 07:14:43 PM 31.5233 -99.2606 332° Northwest 422 486 38,000  Level Fort Worth Center
Fri 07:15:43 PM 31.6247 -99.3261 331° Northwest 417 480 38,000  Level Fort Worth Center
Fri 07:16:43 PM 31.7258 -99.3869 333° Northwest 412 474 38,000  Level Fort Worth Center
Fri 07:17:43 PM 31.8292 -99.4528 332° Northwest 412 474 38,000  Level Fort Worth Center
Fri 07:18:43 PM 31.9283 -99.5161 332° Northwest 412 474 38,000  Level Fort Worth Center
Fri 07:19:43 PM 32.0297 -99.5772 333° Northwest 412 474 38,000  Level Fort Worth Center
Fri 07:20:43 PM 32.1308 -99.6408 332° Northwest 412 474 38,000  Level Fort Worth Center
Fri 07:21:43 PM 32.2319 -99.7047 332° Northwest 412 474 38,000  Level Fort Worth Center
Fri 07:22:43 PM 32.3331 -99.7689 332° Northwest 412 474 38,000  Level Fort Worth Center
Fri 07:23:43 PM 32.4322 -99.8331 331° Northwest 412 474 38,000  Level Fort Worth Center
Fri 07:24:43 PM 32.5208 -99.8869 333° Northwest 412 474 38,000  Level Fort Worth Center
Fri 07:25:43 PM 32.6303 -99.9442 336° Northwest 406 467 38,000  Level Fort Worth Center
Fri 07:26:43 PM 32.7481 -99.9994 338° Northwest 419 482 38,000  Level Fort Worth Center
Fri 07:27:43 PM 32.8431 -100.0517 335° Northwest 425 489 38,000  Level Fort Worth Center
Fri 07:28:43 PM 32.9464 -100.1042 337° Northwest 415 478 38,000  Level Fort Worth Center
Fri 07:29:43 PM 33.0517 -100.1594 336° Northwest 410 472 38,000  Level Fort Worth Center
Fri 07:30:43 PM 33.1589 -100.2150 337° Northwest 410 472 38,000  Level Fort Worth Center
Fri 07:31:43 PM 33.2642 -100.2706 336° Northwest 416 479 38,000  Level Fort Worth Center
Fri 07:32:43 PM 33.3817 -100.3314 337° Northwest 416 479 38,000  Level Fort Worth Center
Fri 07:33:43 PM 33.4869 -100.3872 336° Northwest 416 479 38,000  Level Fort Worth Center
Fri 07:34:43 PM 33.5942 -100.4408 337° Northwest 416 479 38,000  Level Fort Worth Center
Fri 07:35:43 PM 33.6992 -100.4992 335° Northwest 416 479 38,000  Level Fort Worth Center
Fri 07:37:25 PM 33.8728 -100.5892 337° Northwest 415 478 38,000  Level Albuquerque Center
Fri 07:38:27 PM 33.9775 -100.6453 336° Northwest 412 474 38,000  Level Albuquerque Center
Fri 07:39:28 PM 34.0844 -100.7022 336° Northwest 417 480 38,000  Level Albuquerque Center
Fri 07:40:30 PM 34.1908 -100.7600 336° Northwest 419 482 38,000  Level Albuquerque Center
Fri 07:41:31 PM 34.2969 -100.8167 336° Northwest 419 482 38,000  Level Albuquerque Center
Fri 07:42:33 PM 34.4247 -100.8861 336° Northwest 419 482 38,000  Level Albuquerque Center
Fri 07:43:34 PM 34.5317 -100.9428 336° Northwest 420 483 38,000  Level Albuquerque Center
Fri 07:44:36 PM 34.6394 -101.0003 336° Northwest 422 486 38,000  Level Albuquerque Center
Fri 07:45:37 PM 34.7461 -101.0603 335° Northwest 423 487 38,000  Level Albuquerque Center
Fri 07:46:39 PM 34.8547 -101.1181 336° Northwest 425 489 38,000  Level Albuquerque Center
Fri 07:47:40 PM 34.9625 -101.1769 336° Northwest 426 490 38,000  Level Albuquerque Center
Fri 07:48:42 PM 35.0722 -101.2378 336° Northwest 431 496 38,000  Level Albuquerque Center
Fri 07:49:43 PM 35.2011 -101.3086 336° Northwest 429 494 38,000  Level Albuquerque Center
Fri 07:50:45 PM 35.2933 -101.3603 335° Northwest 431 496 38,000  Level Albuquerque Center
Fri 07:51:46 PM 35.4286 -101.4347 336° Northwest 439 505 38,000  Level Albuquerque Center
Fri 07:52:48 PM 35.5222 -101.4944 333° Northwest 432 497 38,000  Level Albuquerque Center
Fri 07:53:50 PM 35.6264 -101.5603 333° Northwest 425 489 38,000  Level Albuquerque Center
Fri 07:54:51 PM 35.7522 -101.6403 333° Northwest 426 490 38,000  Level Albuquerque Center
Fri 07:55:53 PM 35.8572 -101.7050 333° Northwest 424 488 38,000  Level Albuquerque Center
Fri 07:56:54 PM 35.9617 -101.7711 333° Northwest 423 487 38,000  Level Albuquerque Center
Fri 07:57:56 PM 36.0661 -101.8375 333° Northwest 424 488 38,000  Level Albuquerque Center
Fri 07:58:57 PM 36.1711 -101.9044 333° Northwest 426 490 38,000  Level Albuquerque Center
Fri 07:59:59 PM 36.2764 -101.9711 333° Northwest 425 489 38,000  Level Albuquerque Center
Fri 08:01:01 PM 36.3811 -102.0375 333° Northwest 424 488 38,000  Level Albuquerque Center
Fri 08:02:02 PM 36.5058 -102.1181 333° Northwest 422 486 38,000  Level Albuquerque Center
Fri 08:03:04 PM 36.6111 -102.1869 332° Northwest 426 490 38,000 -194 Level Albuquerque Center
Fri 08:04:06 PM 36.7167 -102.2536 333° Northwest 426 490 37,600 -634 Descending Albuquerque Center
Fri 08:05:07 PM 36.8242 -102.3236 332° Northwest 432 497 36,700 -780 Descending Albuquerque Center
Fri 08:06:09 PM 36.9444 -102.4025 332° Northwest 448 516 36,000 -339 Descending Albuquerque Center
Fri 08:07:11 PM 37.0478 -102.4700 332° Northwest 440 506 36,000  Level Albuquerque Center
Fri 08:08:12 PM 37.1667 -102.5483 332° Northwest 439 505 36,000  Level Albuquerque Center
Fri 08:09:14 PM 37.2703 -102.6158 333° Northwest 438 504 36,000  Level Albuquerque Center
Fri 08:10:16 PM 37.3903 -102.6944 333° Northwest 437 503 36,000  Level Albuquerque Center
Fri 08:10:48 PM 37.4439 -102.7206 339° North 437 503 36,000  Level Denver Center
Fri 08:11:50 PM 37.5542 -102.7739 339° North 443 510 36,000  Level Denver Center
Fri 08:12:52 PM 37.6814 -102.8375 338° Northwest 442 509 36,000  Level Denver Center
Fri 08:13:54 PM 37.7908 -102.8911 339° North 442 509 36,000  Level Denver Center
Fri 08:14:56 PM 37.9203 -102.9553 339° North 446 513 36,000  Level Denver Center
Fri 08:15:58 PM 38.0378 -103.0136 339° North 450 518 36,000  Level Denver Center
Fri 08:17:00 PM 38.1489 -103.0706 338° Northwest 449 517 36,000 -435 Level Denver Center
Fri 08:18:02 PM 38.2736 -103.1317 339° North 452 520 35,100 -919 Descending Denver Center
Fri 08:19:04 PM 38.3897 -103.1906 338° Northwest 443 510 34,100 -968 Descending Denver Center
Fri 08:20:06 PM 38.5189 -103.2569 338° Northwest 448 516 33,100 -1,016 Descending Denver Center
Fri 08:21:08 PM 38.6372 -103.3150 339° North 448 516 32,000 -1,073 Descending Denver Center
Fri 08:22:09 PM 38.7414 -103.3889 331° Northwest 434 499 30,900 -1,317 Descending Denver Center
Fri 08:23:11 PM 38.8286 -103.5100 313° West 425 489 29,300 -1,742 Descending Denver Center
Fri 08:24:13 PM 38.9011 -103.6106 313° West 418 481 27,300 -1,984 Descending Denver Center
Fri 08:25:15 PM 38.9739 -103.7169 311° West 396 456 25,200 -2,032 Descending Denver Center
Fri 08:26:17 PM 39.0464 -103.8169 313° West 380 437 23,100 -2,177 Descending Denver Center
Fri 08:27:19 PM 39.1247 -103.9303 312° West 358 412 20,700 -2,146 Descending Denver Center
Fri 08:28:20 PM 39.1903 -104.0242 312° West 352 405 18,700 -1,854 Descending Denver Center
Fri 08:29:22 PM 39.2550 -104.1189 311° West 349 402 16,900 -1,403 Descending Denver Center
Fri 08:30:24 PM 39.2944 -104.2350 294° West 353 406 15,800 -1,403 Descending Denver Center
Fri 08:31:26 PM 39.3525 -104.3431 305° West 342 394 14,000 -1,403 Descending Denver Center
Fri 08:32:28 PM 39.4067 -104.4336 308° West 320 368 12,900 -677 Descending Denver Center
Fri 08:33:30 PM 39.4447 -104.5167 301° West 258 297 12,600 -732 Descending Denver Center
Fri 08:34:31 PM 39.4800 -104.6039 298° West 253 291 11,400 -1,220 Descending Denver Center
Fri 08:35:33 PM 39.5436 -104.6353 339° North 244 281 10,100 -1,161 Descending Denver Center
Fri 08:36:35 PM 39.6119 -104.6656 341° North 239 275 9,000 -823 Descending Denver Center
Fri 08:37:37 PM 39.6778 -104.6619 North 238 274 8,400 -677 Descending Denver Center
Fri 08:38:39 PM 39.7369 -104.6617 360° North 208 239 7,600 -1,024 Descending Denver Center
Fri 08:39:40 PM 39.7886 -104.6611 360° North 171 197 6,300 -1,073 Descending Denver Center
Fri 08:40:42 PM 39.8311 -104.6611 360° North 156 180 5,400 -871 Descending Denver Center
Fri 08:42:00 PM 39.8500 -104.6667 North  Level FlightAware Approximate
Fri 08:49:00 PM 39.8617 -104.6732 North  Level Estimated
Fri 08:50:00 PM 39.8617 -104.6732 North  Level Estimated

Login

Don't have an account? Register now (free) for customized features, flight alerts, and more!